Airfield :
LOGIN :

Register | Disclaimer

   EN    FR    IT 

 










Legend :    VFR   Marginal VFR   IFR   Intensive IFR   Very Intensive IFR
Visi :
Ceiling :
>= 8 km
>= 3000ft
5 to 8 km
1000 to 3000 ft
1500m to 5 km
500 to 1000 ft
800 to 1500m
200 to 500 ft
< 800m
< 200 ft
Symbols :   Thunderstorms  Fog  Heavy snow  Heavy precipitations  Wind > 20 kt
SIGMETs :     Misc.  Thunderstorms  Icing  Turbulence  Mountain Waves  Volcanic Ashes






- Airport Elevation : 219 ft
- IATA code : DNR


LFRD - Dinard

CURRENT METAR :
  • 271530Z AUTO 36003KT 320V110 9999 FEW044/// BKN056/// BKN078/// ///TCU 16/10 Q1019 TEMPO 3000 SHRA BKN020CB

EXPIRED METARs :
  • 271500Z AUTO 35006KT 7000 FEW030/// SCT037/// BKN048/// //////TCU 14/11 Q1019 TEMPO 3000 SHRA BKN020CB
  • 271430Z AUTO VRB06KT 9999 FEW044/// BKN100/// ///TCU 16/09 Q1019 TEMPO 3000 SHRA BKN020CB
  • 271400Z AUTO VRB02KT 9999 BKN034/// BKN045/// BKN056/// ///TCU 16/09 Q1019 TEMPO 3000 SHRA BKN020CB
  • 271330Z AUTO 23007KT 190V250 9999 //////TCU 17/10 Q1019 TEMPO 3000 SHRA BKN020CB
  • 271300Z AUTO 23007KT 200V270 9999 FEW013/// SCT045/// BKN060/// //////TCU 15/12 Q1019 TEMPO 3000 SHRA BKN020CB
  • 271230Z AUTO 28005KT 250V320 9999 SCT034/// BKN042/// BKN064/// ///TCU 15/08 Q1019 TEMPO 3000 SHRA BKN020CB
  • 271200Z AUTO 21008KT 180V270 9999 FEW042/// BKN062/// BKN090/// ///TCU 16/10 Q1019 TEMPO 3000 SHRA BKN020CB
  • 271130Z AUTO 24010KT 200V290 9999 FEW024/// BKN037/// BKN046/// //////TCU 14/09 Q1019 TEMPO 3000 SHRA BKN020CB
  • 271100Z AUTO 28007KT 9999 BKN039 BKN049 BKN060 15/07 Q1019 TEMPO 3000 SHRA BKN020CB

TAF TAF LFRD
Valid from the 27 at 12:00 until the 28 at 12:00 UTC


271100Z 2712/2812 26010KT 9999 SCT030
TEMPO 2712/2718 3000 SHRA BKN020CB
BECMG 2712/2714 30010KT
BECMG 2714/2716 VRB05KT
BECMG 2720/2722 22010KT
BECMG 2722/2724 BKN012
TEMPO 2722/2806 3000 RADZ BKN008
BECMG 2806/2809 BKN018
ATIS : +33 2 99 16 81 50



MET'MAP, your aeronautical weather chart ! - Copyright ORBIFLY December 2007 - Disclaimer

ORBIFLY MET'MAP TEAM :

Programming & Development : Alexandra Zaïnal
Original concept : Baudouin d'Aumeries
Technical & hardware support : Manuel Goepfert
Assistance : Marc-Olivier Méhu




SOURCES & CREDITS :

   NOAA